createdAt,value
2022-08-05T00:00:17.792Z,100.00
2022-08-05T00:02:50.623Z,100.00
2022-08-05T00:06:02.011Z,100.00
2022-08-05T00:08:32.530Z,100.00
2022-08-05T00:11:02.469Z,100.00
2022-08-05T00:13:38.829Z,100.00
2022-08-05T00:16:12.556Z,100.00
2022-08-05T00:19:06.635Z,100.00
2022-08-05T00:21:35.890Z,100.00
2022-08-05T00:24:10.065Z,100.00
2022-08-05T00:26:43.435Z,100.00
2022-08-05T00:29:22.650Z,100.00
2022-08-05T00:32:12.324Z,100.00
2022-08-05T00:35:05.143Z,100.00
2022-08-05T00:37:51.056Z,100.00
2022-08-05T00:40:28.201Z,100.00
2022-08-05T00:43:01.471Z,100.00
2022-08-05T00:45:43.178Z,100.00
2022-08-05T00:48:13.184Z,100.00
2022-08-05T00:50:41.975Z,100.00
2022-08-05T00:54:00.921Z,100.00
2022-08-05T00:56:07.840Z,100.00
2022-08-05T00:58:37.317Z,100.00
2022-08-05T01:01:08.869Z,100.00
2022-08-05T01:03:38.308Z,100.00
2022-08-05T01:06:15.275Z,100.00
2022-08-05T01:08:44.544Z,100.00
2022-08-05T01:11:13.841Z,100.00
2022-08-05T01:14:00.092Z,100.00
2022-08-05T01:16:38.417Z,100.00
2022-08-05T01:20:01.338Z,100.00
2022-08-05T01:23:00.172Z,100.00
2022-08-05T01:26:14.262Z,100.00
2022-08-05T01:29:05.310Z,100.00
2022-08-05T01:31:42.592Z,100.00
2022-08-05T01:34:16.178Z,100.00
2022-08-05T01:37:24.833Z,100.00
2022-08-05T01:39:59.210Z,100.00
2022-08-05T01:42:27.681Z,100.00
2022-08-05T01:44:59.831Z,100.00
2022-08-05T01:47:39.683Z,100.00
2022-08-05T01:50:34.630Z,100.00
2022-08-05T01:53:07.513Z,100.00
2022-08-05T01:55:37.144Z,100.00
2022-08-05T01:58:11.776Z,100.00
2022-08-05T02:00:54.785Z,100.00
2022-08-05T02:03:34.219Z,100.00
2022-08-05T02:06:12.668Z,100.00
2022-08-05T02:08:58.205Z,100.00
2022-08-05T02:11:33.219Z,100.00
2022-08-05T02:14:06.475Z,100.00
2022-08-05T02:16:46.360Z,100.00
2022-08-05T02:19:48.804Z,100.00
2022-08-05T02:22:26.636Z,100.00
2022-08-05T02:25:12.812Z,100.00
2022-08-05T02:27:58.134Z,100.00
2022-08-05T02:30:31.412Z,100.00
2022-08-05T02:33:01.995Z,100.00
2022-08-05T02:35:37.361Z,100.00
2022-08-05T02:38:05.616Z,100.00
2022-08-05T02:40:38.887Z,100.00
2022-08-05T02:43:07.438Z,100.00
2022-08-05T02:45:51.951Z,100.00
2022-08-05T02:48:29.257Z,100.00
2022-08-05T02:51:02.190Z,100.00
2022-08-05T02:53:39.162Z,100.00
2022-08-05T02:56:09.424Z,100.00
2022-08-05T02:58:43.651Z,100.00
2022-08-05T03:01:15.361Z,100.00
2022-08-05T03:04:04.195Z,100.00
2022-08-05T03:06:56.394Z,100.00
2022-08-05T03:09:36.475Z,100.00
2022-08-05T03:12:10.458Z,100.00
2022-08-05T03:14:45.626Z,100.00
2022-08-05T03:17:14.886Z,100.00
2022-08-05T03:19:45.723Z,100.00
2022-08-05T03:22:18.878Z,100.00
2022-08-05T03:25:02.299Z,100.00
2022-08-05T03:27:59.341Z,100.00
2022-08-05T03:30:33.518Z,100.00
2022-08-05T03:33:05.722Z,100.00
2022-08-05T03:35:41.079Z,100.00
2022-08-05T03:38:14.366Z,100.00
2022-08-05T03:40:48.659Z,100.00
2022-08-05T03:44:08.367Z,100.00
2022-08-05T03:46:08.285Z,100.00
2022-08-05T03:48:36.709Z,95.83
2022-08-05T03:52:37.265Z,91.93
2022-08-05T03:55:50.896Z,89.69
2022-08-05T03:57:29.257Z,89.75
2022-08-05T04:00:16.513Z,93.49
2022-08-05T04:02:58.092Z,96.13
2022-08-05T04:05:33.767Z,98.09
2022-08-05T04:08:05.860Z,98.68
2022-08-05T04:10:45.316Z,96.49
2022-08-05T04:13:13.624Z,95.86
2022-08-05T04:16:02.849Z,98.86
2022-08-05T04:18:34.466Z,97.53
2022-08-05T04:21:03.866Z,98.38
2022-08-05T04:24:05.185Z,97.65
2022-08-05T04:26:21.232Z,99.40
2022-08-05T04:28:51.316Z,99.66
2022-08-05T04:31:21.449Z,100.00
2022-08-05T04:34:19.272Z,100.00
2022-08-05T04:36:49.495Z,100.00
2022-08-05T04:39:21.732Z,99.87
2022-08-05T04:41:51.405Z,97.94
2022-08-05T04:44:24.487Z,98.20
2022-08-05T04:47:08.878Z,97.61
2022-08-05T04:50:01.382Z,98.39
2022-08-05T04:52:28.393Z,98.80
2022-08-05T04:55:13.822Z,98.72
2022-08-05T04:57:47.893Z,98.24
2022-08-05T05:00:19.417Z,97.46
2022-08-05T05:02:52.820Z,96.90
2022-08-05T05:05:28.967Z,97.64
2022-08-05T05:08:04.999Z,97.63
2022-08-05T05:10:55.832Z,95.44
2022-08-05T05:13:26.183Z,93.61
2022-08-05T05:16:06.143Z,91.53
2022-08-05T05:18:35.538Z,89.82
2022-08-05T05:21:05.557Z,90.95
2022-08-05T05:24:01.965Z,90.20
2022-08-05T05:26:28.298Z,88.35
2022-08-05T05:29:02.553Z,83.64
2022-08-05T05:31:46.337Z,79.04
2022-08-05T05:34:18.146Z,76.66
2022-08-05T05:36:52.544Z,74.02
2022-08-05T05:39:21.202Z,75.77
2022-08-05T05:41:54.092Z,73.52
2022-08-05T05:44:36.484Z,72.02
2022-08-05T05:47:21.236Z,71.92
2022-08-05T05:49:56.949Z,71.72
2022-08-05T05:52:33.195Z,69.60
2022-08-05T05:55:13.530Z,72.09
2022-08-05T05:57:52.747Z,75.03
2022-08-05T06:00:31.424Z,75.14
2022-08-05T06:03:39.709Z,76.43
2022-08-05T06:05:54.161Z,77.17
2022-08-05T06:08:32.387Z,77.18
2022-08-05T06:11:10.762Z,77.24
2022-08-05T06:13:53.848Z,78.33
2022-08-05T06:16:28.194Z,77.32
2022-08-05T06:19:05.356Z,78.87
2022-08-05T06:21:36.580Z,78.14
2022-08-05T06:24:11.365Z,77.37
2022-08-05T06:26:51.814Z,77.84
2022-08-05T06:29:25.009Z,80.35
2022-08-05T06:32:24.902Z,78.07
2022-08-05T06:34:57.838Z,74.56
2022-08-05T06:37:56.842Z,75.90
2022-08-05T06:40:18.370Z,75.93
2022-08-05T06:42:52.225Z,75.37
2022-08-05T06:45:44.440Z,74.87
2022-08-05T06:48:46.857Z,75.77
2022-08-05T06:51:01.023Z,72.66
2022-08-05T06:53:30.376Z,70.08
2022-08-05T06:56:25.825Z,71.04
2022-08-05T06:58:58.222Z,72.13
2022-08-05T07:01:32.054Z,71.58
2022-08-05T07:04:02.113Z,70.15
2022-08-05T07:06:31.912Z,70.54
2022-08-05T07:09:03.777Z,70.23
2022-08-05T07:11:37.164Z,70.42
2022-08-05T07:14:29.556Z,70.22
2022-08-05T07:17:58.678Z,68.49
2022-08-05T07:22:42.491Z,65.12
2022-08-05T07:25:23.870Z,65.96
2022-08-05T07:28:04.213Z,66.05
2022-08-05T07:30:39.536Z,63.97
2022-08-05T07:33:37.090Z,66.48
2022-08-05T07:36:20.689Z,66.40
2022-08-05T07:38:49.745Z,65.54
2022-08-05T07:42:14.318Z,64.70
2022-08-05T07:44:12.107Z,65.50
2022-08-05T07:46:48.531Z,66.20
2022-08-05T07:49:18.140Z,66.74
2022-08-05T07:51:53.037Z,66.18
2022-08-05T07:54:30.603Z,65.15
2022-08-05T07:57:02.786Z,64.78
2022-08-05T07:59:42.808Z,65.19
2022-08-05T08:02:15.484Z,64.28
2022-08-05T08:04:48.925Z,65.90
2022-08-05T08:07:22.803Z,64.06
2022-08-05T08:09:55.151Z,63.82
2022-08-05T08:12:37.172Z,64.34
2022-08-05T08:15:13.990Z,65.03
2022-08-05T08:17:52.387Z,64.09
2022-08-05T08:20:59.933Z,62.56
2022-08-05T08:24:03.224Z,63.19
2022-08-05T08:26:04.806Z,63.19
2022-08-05T08:28:36.793Z,62.34
2022-08-05T08:31:09.041Z,62.65
2022-08-05T08:33:38.549Z,63.91
2022-08-05T08:36:38.646Z,63.70
2022-08-05T08:38:59.152Z,62.28
2022-08-05T08:41:50.774Z,59.83
2022-08-05T08:45:17.759Z,59.98
2022-08-05T08:47:47.285Z,60.93
2022-08-05T08:50:22.760Z,60.91
2022-08-05T08:52:57.243Z,58.41
2022-08-05T08:56:03.115Z,59.98
2022-08-05T08:58:17.256Z,60.57
2022-08-05T09:00:45.991Z,60.34
2022-08-05T09:03:15.919Z,59.79
2022-08-05T09:06:09.103Z,57.32
2022-08-05T09:08:40.094Z,56.99
2022-08-05T09:11:13.566Z,58.33
2022-08-05T09:14:09.361Z,58.91
2022-08-05T09:16:34.856Z,59.60
2022-08-05T09:19:06.815Z,61.62
2022-08-05T09:22:17.755Z,61.90
2022-08-05T09:24:26.911Z,63.12
2022-08-05T09:26:57.077Z,63.69
2022-08-05T09:29:48.190Z,60.61
2022-08-05T09:32:51.178Z,61.52
2022-08-05T09:35:20.060Z,62.14
2022-08-05T09:38:11.947Z,60.32
2022-08-05T09:40:53.561Z,60.89
2022-08-05T09:43:40.791Z,58.83
2022-08-05T09:46:30.330Z,58.98
2022-08-05T09:49:08.005Z,59.77
2022-08-05T09:52:03.907Z,58.41
2022-08-05T09:54:37.214Z,56.42
2022-08-05T09:57:20.804Z,56.00
2022-08-05T09:59:53.444Z,56.10
2022-08-05T10:02:44.235Z,57.30
2022-08-05T10:05:18.560Z,57.82
2022-08-05T10:08:34.737Z,57.10
2022-08-05T10:10:44.466Z,57.60
2022-08-05T10:13:14.582Z,58.79
2022-08-05T10:15:44.283Z,58.10
2022-08-05T10:18:23.322Z,59.52
2022-08-05T10:20:56.396Z,62.88
2022-08-05T10:23:55.844Z,63.85
2022-08-05T10:26:16.128Z,65.12
2022-08-05T10:28:45.124Z,71.74
2022-08-05T10:32:52.800Z,78.19
2022-08-05T10:34:03.869Z,81.35
2022-08-05T10:36:37.748Z,80.73
2022-08-05T10:39:11.767Z,80.67
2022-08-05T10:42:07.464Z,82.39
2022-08-05T10:44:39.715Z,81.09
2022-08-05T10:47:26.438Z,82.50
2022-08-05T10:50:32.455Z,83.37
2022-08-05T10:53:01.233Z,85.82
2022-08-05T10:56:03.856Z,85.34
2022-08-05T10:58:21.097Z,83.10
2022-08-05T11:00:55.275Z,84.12
2022-08-05T11:03:31.743Z,84.53
2022-08-05T11:06:15.692Z,86.11
2022-08-05T11:09:13.062Z,85.73
2022-08-05T11:11:53.279Z,84.85
2022-08-05T11:14:57.791Z,84.34
2022-08-05T11:17:59.229Z,84.55
2022-08-05T11:20:51.866Z,84.80
2022-08-05T11:24:05.018Z,84.65
2022-08-05T11:26:28.171Z,84.83
2022-08-05T11:29:06.764Z,84.58
2022-08-05T11:31:58.617Z,82.93
2022-08-05T11:34:51.349Z,82.87
2022-08-05T11:38:36.635Z,84.45
2022-08-05T11:41:36.858Z,84.31
2022-08-05T11:44:08.093Z,82.27
2022-08-05T11:47:09.380Z,82.39
2022-08-05T11:49:35.813Z,81.38
2022-08-05T11:52:11.123Z,81.63
2022-08-05T11:54:41.796Z,79.37
2022-08-05T11:57:39.427Z,79.57
2022-08-05T11:59:59.834Z,79.87
2022-08-05T12:02:32.526Z,81.02
2022-08-05T12:05:07.175Z,81.50
2022-08-05T12:08:07.981Z,82.08
2022-08-05T12:10:45.177Z,80.89
2022-08-05T12:13:27.822Z,81.94
2022-08-05T12:16:14.755Z,80.98
2022-08-05T12:18:49.554Z,79.45
2022-08-05T12:21:29.751Z,78.83
2022-08-05T12:24:09.397Z,79.94
2022-08-05T12:26:43.832Z,79.08
2022-08-05T12:29:16.158Z,77.99
2022-08-05T12:32:09.721Z,77.24
2022-08-05T12:34:38.360Z,78.37
2022-08-05T12:37:17.428Z,77.63
2022-08-05T12:39:51.872Z,77.28
2022-08-05T12:42:25.425Z,76.40
2022-08-05T12:45:49.822Z,79.27
2022-08-05T12:48:32.480Z,80.21
2022-08-05T12:52:11.174Z,81.22
2022-08-05T12:54:16.647Z,81.60
2022-08-05T12:56:58.503Z,81.14
2022-08-05T13:00:08.536Z,81.76
2022-08-05T13:02:30.348Z,79.83
2022-08-05T13:04:58.903Z,80.47
2022-08-05T13:07:57.638Z,81.14
2022-08-05T13:10:20.213Z,78.72
2022-08-05T13:12:57.134Z,75.34
2022-08-05T13:15:36.045Z,72.39
2022-08-05T13:18:19.508Z,70.95
2022-08-05T13:20:49.902Z,70.58
2022-08-05T13:23:22.757Z,70.02
2022-08-05T13:25:59.207Z,69.62
2022-08-05T13:28:32.239Z,71.90
2022-08-05T13:31:11.193Z,76.42
2022-08-05T13:34:24.627Z,75.53
2022-08-05T13:36:31.935Z,75.17
2022-08-05T13:39:00.310Z,74.51
2022-08-05T13:41:35.836Z,74.42
2022-08-05T13:44:06.469Z,72.10
2022-08-05T13:46:58.427Z,71.46
2022-08-05T13:49:26.025Z,70.38
2022-08-05T13:51:57.210Z,69.57
2022-08-05T13:54:26.858Z,68.63
2022-08-05T13:56:55.127Z,69.30
2022-08-05T13:59:27.335Z,69.57
2022-08-05T14:02:00.836Z,71.43
2022-08-05T14:04:50.527Z,73.22
2022-08-05T14:07:26.148Z,72.10
2022-08-05T14:10:11.651Z,70.25
2022-08-05T14:12:40.134Z,72.82
2022-08-05T14:16:08.353Z,69.43
2022-08-05T14:18:01.796Z,67.49
2022-08-05T14:20:37.071Z,68.24
2022-08-05T14:23:06.036Z,65.07
2022-08-05T14:25:35.617Z,66.49
2022-08-05T14:28:25.994Z,67.03
2022-08-05T14:30:57.019Z,68.40
2022-08-05T14:33:59.704Z,69.82
2022-08-05T14:36:21.992Z,72.61
2022-08-05T14:38:51.040Z,72.17
2022-08-05T14:41:19.994Z,72.37
2022-08-05T14:44:00.284Z,74.49
2022-08-05T14:46:34.980Z,73.71
2022-08-05T14:49:07.246Z,74.43
2022-08-05T14:51:37.708Z,75.42
2022-08-05T14:54:29.866Z,76.48
2022-08-05T14:56:57.753Z,77.16
2022-08-05T14:59:29.335Z,77.23
2022-08-05T15:01:58.894Z,77.45
2022-08-05T15:04:29.124Z,78.75
2022-08-05T15:06:59.581Z,78.77
2022-08-05T15:09:52.153Z,80.58
2022-08-05T15:12:17.769Z,81.32
2022-08-05T15:14:50.146Z,81.69
2022-08-05T15:17:45.770Z,83.80
2022-08-05T15:20:18.847Z,84.71
2022-08-05T15:22:54.424Z,84.08
2022-08-05T15:25:41.023Z,85.32
2022-08-05T15:28:14.739Z,84.85
2022-08-05T15:30:46.430Z,84.99
2022-08-05T15:33:53.707Z,86.85
2022-08-05T15:36:16.984Z,88.64
2022-08-05T15:38:46.759Z,89.59
2022-08-05T15:41:22.398Z,92.60
2022-08-05T15:43:54.553Z,94.93
2022-08-05T15:46:25.196Z,94.82
2022-08-05T15:49:00.681Z,93.10
2022-08-05T15:52:09.909Z,93.83
2022-08-05T15:54:18.018Z,94.30
2022-08-05T15:56:46.362Z,96.21
2022-08-05T15:59:22.244Z,96.82
2022-08-05T16:01:53.895Z,95.28
2022-08-05T16:04:25.699Z,95.48
2022-08-05T16:07:17.571Z,95.48
2022-08-05T16:09:46.974Z,95.81
2022-08-05T16:12:17.585Z,96.34
2022-08-05T16:14:47.896Z,96.36
2022-08-05T16:17:15.782Z,99.08
2022-08-05T16:20:05.629Z,100.00
2022-08-05T16:22:34.066Z,100.00
2022-08-05T16:25:07.956Z,99.78
2022-08-05T16:27:59.764Z,99.18
2022-08-05T16:30:31.210Z,99.36
2022-08-05T16:33:00.177Z,100.00
2022-08-05T16:35:33.771Z,100.00
2022-08-05T16:38:21.887Z,100.00
2022-08-05T16:40:59.818Z,99.82
2022-08-05T16:43:30.559Z,100.00
2022-08-05T16:46:07.465Z,100.00
2022-08-05T16:48:47.425Z,99.83
2022-08-05T16:51:16.101Z,99.46
2022-08-05T16:54:05.897Z,98.02
2022-08-05T16:56:33.878Z,98.11
2022-08-05T16:59:07.544Z,97.99
2022-08-05T17:01:54.673Z,98.26
2022-08-05T17:04:28.036Z,98.48
2022-08-05T17:07:01.184Z,99.11
2022-08-05T17:09:30.172Z,99.78
2022-08-05T17:11:59.647Z,100.00
2022-08-05T17:14:37.036Z,100.00
2022-08-05T17:17:14.498Z,100.00
2022-08-05T17:19:45.890Z,100.00
2022-08-05T17:22:25.534Z,100.00
2022-08-05T17:24:58.010Z,100.00
2022-08-05T17:27:34.263Z,100.00
2022-08-05T17:30:12.063Z,100.00
2022-08-05T17:32:48.146Z,100.00
2022-08-05T17:35:20.919Z,100.00
2022-08-05T17:37:51.449Z,100.00
2022-08-05T17:40:22.428Z,100.00
2022-08-05T17:42:52.902Z,100.00
2022-08-05T17:45:37.913Z,100.00
2022-08-05T17:48:08.603Z,100.00
2022-08-05T17:50:37.192Z,100.00
2022-08-05T17:53:08.407Z,100.00
2022-08-05T17:55:39.501Z,100.00
2022-08-05T17:58:11.013Z,100.00
2022-08-05T18:00:45.323Z,100.00
2022-08-05T18:06:12.298Z,100.00
2022-08-05T18:08:46.230Z,100.00
2022-08-05T18:11:24.497Z,100.00
2022-08-05T18:14:13.182Z,100.00
2022-08-05T18:16:50.929Z,100.00
2022-08-05T18:19:22.703Z,100.00
2022-08-05T18:22:07.568Z,100.00
2022-08-05T18:24:39.914Z,100.00
2022-08-05T18:27:12.498Z,100.00
2022-08-05T18:29:41.748Z,100.00
2022-08-05T18:32:13.012Z,100.00
2022-08-05T18:34:42.934Z,100.00
2022-08-05T18:37:16.848Z,100.00
2022-08-05T18:40:33.857Z,100.00
2022-08-05T18:42:48.618Z,100.00
2022-08-05T18:45:18.007Z,100.00
2022-08-05T18:47:53.175Z,100.00
2022-08-05T18:50:46.171Z,100.00
2022-08-05T18:53:22.185Z,100.00
2022-08-05T18:55:53.126Z,100.00
2022-08-05T18:58:27.210Z,100.00
2022-08-05T19:00:57.786Z,100.00
2022-08-05T19:03:53.331Z,100.00
2022-08-05T19:06:22.205Z,100.00
2022-08-05T19:09:02.350Z,100.00
2022-08-05T19:11:59.533Z,100.00
2022-08-05T19:14:59.594Z,100.00
2022-08-05T19:17:11.872Z,100.00
2022-08-05T19:19:46.468Z,100.00
2022-08-05T19:22:17.226Z,100.00
2022-08-05T19:24:54.434Z,100.00
2022-08-05T19:27:30.239Z,100.00
2022-08-05T19:29:58.520Z,100.00
2022-08-05T19:32:27.814Z,100.00
2022-08-05T19:34:59.314Z,100.00
2022-08-05T19:37:47.095Z,100.00
2022-08-05T19:40:24.353Z,100.00
2022-08-05T19:43:04.988Z,100.00
2022-08-05T19:45:36.854Z,100.00
2022-08-05T19:48:05.913Z,100.00
2022-08-05T19:50:36.392Z,100.00
2022-08-05T19:53:10.599Z,100.00
2022-08-05T19:56:15.203Z,100.00
2022-08-05T19:58:30.230Z,100.00
2022-08-05T20:00:58.837Z,100.00
2022-08-05T20:03:38.751Z,100.00
2022-08-05T20:06:15.479Z,100.00
2022-08-05T20:08:52.789Z,100.00
2022-08-05T20:11:23.980Z,100.00
2022-08-05T20:13:58.656Z,100.00
2022-08-05T20:16:44.108Z,100.00
2022-08-05T20:19:12.228Z,100.00
2022-08-05T20:21:44.893Z,100.00
2022-08-05T20:24:14.875Z,100.00
2022-08-05T20:26:45.254Z,100.00
2022-08-05T20:29:27.618Z,100.00
2022-08-05T20:31:58.295Z,100.00
2022-08-05T20:34:31.047Z,100.00
2022-08-05T20:36:59.956Z,100.00
2022-08-05T20:39:35.426Z,100.00
2022-08-05T20:42:04.565Z,100.00
2022-08-05T20:44:37.849Z,100.00
2022-08-05T20:47:08.121Z,100.00
2022-08-05T20:49:39.945Z,100.00
2022-08-05T20:52:09.012Z,100.00
2022-08-05T20:54:43.052Z,100.00
2022-08-05T20:57:42.072Z,100.00
2022-08-05T21:00:40.098Z,100.00
2022-08-05T21:03:08.137Z,100.00
2022-08-05T21:05:53.391Z,100.00
2022-08-05T21:08:41.414Z,100.00
2022-08-05T21:11:12.385Z,100.00
2022-08-05T21:13:48.319Z,100.00
2022-08-05T21:16:30.169Z,100.00
2022-08-05T21:19:01.536Z,100.00
2022-08-05T21:21:43.689Z,100.00
2022-08-05T21:24:20.757Z,100.00
2022-08-05T21:26:58.355Z,100.00
2022-08-05T21:29:32.008Z,100.00
2022-08-05T21:32:02.424Z,100.00
2022-08-05T21:34:41.449Z,100.00
2022-08-05T21:37:18.393Z,100.00
2022-08-05T21:39:47.598Z,100.00
2022-08-05T21:42:41.224Z,100.00
2022-08-05T21:45:56.881Z,100.00
2022-08-05T21:48:18.871Z,100.00
2022-08-05T21:50:54.027Z,100.00
2022-08-05T21:53:27.577Z,100.00
2022-08-05T21:56:16.210Z,100.00
2022-08-05T21:58:57.518Z,100.00
2022-08-05T22:01:26.744Z,100.00
2022-08-05T22:03:56.213Z,100.00
2022-08-05T22:06:37.050Z,100.00
2022-08-05T22:09:13.177Z,100.00
2022-08-05T22:11:46.803Z,100.00
2022-08-05T22:14:32.785Z,100.00
2022-08-05T22:17:07.354Z,100.00
2022-08-05T22:20:01.348Z,100.00
2022-08-05T22:22:28.112Z,100.00
2022-08-05T22:25:18.194Z,100.00
2022-08-05T22:28:08.439Z,100.00
2022-08-05T22:30:55.972Z,100.00
2022-08-05T22:33:58.072Z,100.00
2022-08-05T22:36:16.311Z,100.00
2022-08-05T22:38:48.478Z,100.00
2022-08-05T22:42:04.610Z,100.00
2022-08-05T22:44:12.809Z,100.00
2022-08-05T22:46:41.984Z,100.00
2022-08-05T22:50:17.395Z,100.00
2022-08-05T22:52:05.146Z,100.00
2022-08-05T22:54:35.973Z,100.00
2022-08-05T22:57:06.100Z,100.00
2022-08-05T22:59:44.201Z,100.00
2022-08-05T23:02:18.710Z,100.00
2022-08-05T23:05:05.004Z,100.00
2022-08-05T23:07:43.828Z,100.00
2022-08-05T23:10:23.816Z,100.00
2022-08-05T23:12:55.194Z,100.00
2022-08-05T23:15:30.046Z,100.00
2022-08-05T23:18:11.495Z,100.00
2022-08-05T23:20:44.149Z,100.00
2022-08-05T23:23:13.646Z,100.00
2022-08-05T23:25:51.688Z,100.00
2022-08-05T23:28:28.626Z,100.00
2022-08-05T23:31:02.238Z,100.00
2022-08-05T23:34:03.829Z,100.00
2022-08-05T23:36:38.498Z,100.00
2022-08-05T23:39:09.669Z,100.00
2022-08-05T23:41:48.770Z,100.00
2022-08-05T23:44:19.778Z,100.00
2022-08-05T23:46:50.603Z,100.00
2022-08-05T23:49:23.860Z,100.00
2022-08-05T23:52:21.824Z,100.00
2022-08-05T23:54:54.534Z,100.00
2022-08-05T23:57:22.667Z,100.00
